createdAt,value
2022-08-26T09:43:15.543Z,101176.81
2022-08-26T09:45:50.243Z,101186.25
2022-08-26T09:48:35.522Z,101179.25
2022-08-26T09:51:06.053Z,101185.13
2022-08-26T09:53:35.753Z,101171.09
2022-08-26T09:56:13.980Z,101178.03
2022-08-26T09:58:42.773Z,101174.69
2022-08-26T10:01:34.524Z,101170.47
2022-08-26T10:04:08.934Z,101161.81
2022-08-26T10:06:40.265Z,101171.94
2022-08-26T10:09:10.941Z,101168.59
2022-08-26T10:11:47.222Z,101174.06
2022-08-26T10:14:17.947Z,101168.28
2022-08-26T10:17:10.366Z,101167.69
2022-08-26T10:19:56.289Z,101166.38
2022-08-26T10:22:36.236Z,101165.78
2022-08-26T10:25:06.077Z,101164.09
2022-08-26T10:27:40.590Z,101163.75
2022-08-26T10:30:20.155Z,101163.91
2022-08-26T10:32:54.616Z,101162.84
2022-08-26T10:35:20.585Z,101169.94
2022-08-26T10:37:53.061Z,101173.06
2022-08-26T10:40:25.009Z,101163.63
2022-08-26T10:42:56.450Z,101162.09
2022-08-26T10:45:26.468Z,101156.84
2022-08-26T10:48:01.355Z,101161.19
2022-08-26T10:50:37.580Z,101153.56
2022-08-26T10:53:15.716Z,101161.22
2022-08-26T10:55:49.997Z,101153.69
2022-08-26T10:58:46.568Z,101153.25
2022-08-26T11:01:40.842Z,101154.91
2022-08-26T11:04:16.037Z,101148.69
2022-08-26T11:06:45.176Z,101151.94
2022-08-26T11:09:12.211Z,101155.78
2022-08-26T11:16:56.577Z,101145.97
2022-08-26T11:20:01.517Z,101136.16
2022-08-26T11:22:31.240Z,101145.34
2022-08-26T11:25:00.747Z,101144.88
2022-08-26T11:32:53.649Z,101146.19
2022-08-26T11:38:04.529Z,101144.16
2022-08-26T11:40:32.649Z,101149.03
2022-08-26T11:43:02.198Z,101146.19
2022-08-26T11:45:45.744Z,101144.66
2022-08-26T11:48:13.634Z,101145.72
2022-08-26T11:50:39.395Z,101143.66
2022-08-26T11:53:06.159Z,101141.81
2022-08-26T11:55:34.030Z,101140.94
2022-08-26T11:58:01.169Z,101140.72
2022-08-26T12:00:33.278Z,101136.81
2022-08-26T12:03:01.581Z,101137.13
2022-08-26T12:05:31.085Z,101139.56
2022-08-26T12:08:00.253Z,101145.25
2022-08-26T12:10:29.832Z,101146.88
2022-08-26T12:12:58.332Z,101142.75
2022-08-26T12:15:25.203Z,101150.22
2022-08-26T12:17:54.375Z,101144.66
2022-08-26T12:23:04.189Z,101138.94
2022-08-26T12:25:36.137Z,101143.03
2022-08-26T12:28:03.357Z,101131.97
2022-08-26T12:30:29.674Z,101148.53
2022-08-26T12:33:22.421Z,101153.09
2022-08-26T12:35:54.195Z,101148.91
2022-08-26T12:38:23.336Z,101153.06
2022-08-26T12:40:49.472Z,101152.22
2022-08-26T12:43:38.017Z,101154.72
2022-08-26T12:46:06.825Z,101151.06
2022-08-26T12:48:35.288Z,101164.38
2022-08-26T12:51:01.339Z,101157.84
2022-08-26T12:53:28.989Z,101162.09
2022-08-26T12:55:59.478Z,101154.34
2022-08-26T12:58:40.201Z,101156.78
2022-08-26T13:03:44.038Z,101146.50
2022-08-26T13:06:15.668Z,101147.34
2022-08-26T13:08:46.960Z,101150.22
2022-08-26T13:11:20.581Z,101148.41
2022-08-26T13:13:51.532Z,101153.72
2022-08-26T13:16:18.843Z,101153.50
2022-08-26T13:18:47.165Z,101144.25
2022-08-26T13:21:17.202Z,101142.94
2022-08-26T13:23:42.856Z,101140.97
2022-08-26T13:26:08.507Z,101149.19
2022-08-26T13:28:34.292Z,101152.91
2022-08-26T13:31:00.008Z,101144.16
2022-08-26T13:33:25.781Z,101149.09
2022-08-26T13:35:53.253Z,101146.56
2022-08-26T13:38:32.988Z,101143.25
2022-08-26T13:40:59.277Z,101139.69
2022-08-26T13:43:25.907Z,101145.31
2022-08-26T13:45:51.833Z,101138.88
2022-08-26T13:48:21.555Z,101140.06
2022-08-26T13:50:48.914Z,101142.34
2022-08-26T13:53:15.673Z,101144.63
2022-08-26T13:55:42.427Z,101146.25
2022-08-26T13:58:09.346Z,101134.84
2022-08-26T14:00:36.587Z,101133.53
2022-08-26T14:03:03.096Z,101136.88
2022-08-26T14:05:29.221Z,101133.06
2022-08-26T14:07:56.418Z,101127.13
2022-08-26T14:10:23.868Z,101130.44
2022-08-26T14:12:50.523Z,101132.09
2022-08-26T14:15:17.750Z,101130.19
2022-08-26T14:17:45.761Z,101136.28
2022-08-26T14:20:15.306Z,101134.13
2022-08-26T14:22:57.473Z,101125.44
2022-08-26T14:25:28.422Z,101122.47
2022-08-26T14:27:54.361Z,101118.41
2022-08-26T14:30:20.612Z,101119.81
2022-08-26T14:32:48.068Z,101117.91
2022-08-26T14:35:17.271Z,101121.00
2022-08-26T14:37:42.902Z,101122.66
2022-08-26T14:40:09.263Z,101119.69
2022-08-26T14:42:35.064Z,101126.59
2022-08-26T14:45:03.031Z,101118.13
2022-08-26T14:47:28.892Z,101107.97
2022-08-26T14:49:54.605Z,101111.31
2022-08-26T14:52:20.602Z,101113.00
2022-08-26T14:54:46.364Z,101114.66
2022-08-26T14:57:12.962Z,101125.41
2022-08-26T14:59:42.264Z,101123.47
2022-08-26T15:02:09.866Z,101130.66
2022-08-26T15:04:39.721Z,101121.94
2022-08-26T15:07:06.187Z,101123.00
2022-08-26T15:09:34.967Z,101122.78
2022-08-26T15:12:00.942Z,101124.66
2022-08-26T15:14:29.738Z,101126.34
2022-08-26T15:16:57.957Z,101133.50
2022-08-26T15:19:24.664Z,101131.84
2022-08-26T15:21:50.639Z,101130.75
2022-08-26T15:24:19.515Z,101121.47
2022-08-26T15:26:45.844Z,101119.31
2022-08-26T15:29:11.624Z,101113.81
2022-08-26T15:31:37.504Z,101121.22
2022-08-26T15:34:06.302Z,101113.56
2022-08-26T15:36:32.276Z,101115.47
2022-08-26T15:38:59.477Z,101114.41
2022-08-26T15:41:26.284Z,101113.31
2022-08-26T15:43:52.068Z,101101.50
2022-08-26T15:46:18.595Z,101110.34
2022-08-26T15:48:44.351Z,101105.09
2022-08-26T15:51:20.120Z,101111.41
2022-08-26T15:53:45.901Z,101107.59
2022-08-26T15:56:12.169Z,101113.91
2022-08-26T15:58:37.829Z,101102.09
2022-08-26T16:01:03.713Z,101099.13
2022-08-26T16:03:29.383Z,101101.88
2022-08-26T16:05:55.083Z,101093.63
2022-08-26T16:08:21.465Z,101089.81
2022-08-26T16:10:50.707Z,101105.22
2022-08-26T16:13:18.506Z,101101.59
2022-08-26T16:15:44.356Z,101096.13
2022-08-26T16:18:10.190Z,101101.59
2022-08-26T16:20:37.869Z,101101.59
2022-08-26T16:23:05.067Z,101098.84
2022-08-26T16:25:30.858Z,101100.53
2022-08-26T16:27:56.901Z,101097.78
2022-08-26T16:30:22.938Z,101101.59
2022-08-26T16:32:48.635Z,101106.66
2022-08-26T16:35:15.171Z,101114.88
2022-08-26T16:37:41.280Z,101112.97
2022-08-26T16:40:08.800Z,101110.00
2022-08-26T16:42:35.395Z,101107.47
2022-08-26T16:45:01.086Z,101107.47
2022-08-26T16:47:26.764Z,101110.22
2022-08-26T16:49:52.956Z,101113.81
2022-08-26T16:52:18.714Z,101115.72
2022-08-26T16:54:44.373Z,101126.47
2022-08-26T16:57:11.298Z,101125.63
2022-08-26T16:59:37.607Z,101135.75
2022-08-26T17:02:04.138Z,101140.19
2022-08-26T17:04:31.076Z,101134.09
2022-08-26T17:06:57.941Z,101136.84
2022-08-26T17:09:24.548Z,101135.13
2022-08-26T17:11:50.768Z,101144.25
2022-08-26T17:14:16.528Z,101142.34
2022-08-26T17:16:43.811Z,101142.53
2022-08-26T17:19:10.249Z,101145.09
2022-08-26T17:21:36.364Z,101145.91
2022-08-26T17:24:03.986Z,101147.00
2022-08-26T17:26:29.684Z,101148.66
2022-08-26T17:28:55.403Z,101153.31
2022-08-26T17:31:22.430Z,101155.25
2022-08-26T17:33:53.910Z,101155.25
2022-08-26T17:36:20.508Z,101150.56
2022-08-26T17:38:46.153Z,101167.88
2022-08-26T17:41:15.121Z,101165.94
2022-08-26T17:43:42.740Z,101162.16
2022-08-26T17:46:09.902Z,101163.22
2022-08-26T17:48:36.816Z,101170.38
2022-08-26T17:51:12.008Z,101170.38
2022-08-26T17:53:38.233Z,101165.94
2022-08-26T17:56:10.514Z,101167.88
2022-08-26T17:58:36.884Z,101164.88
2022-08-26T18:01:03.009Z,101160.47
2022-08-26T18:03:28.754Z,101158.31
2022-08-26T18:05:54.568Z,101157.72
2022-08-26T18:08:20.560Z,101161.91
2022-08-26T18:10:46.241Z,101165.94
2022-08-26T18:13:13.932Z,101166.53
2022-08-26T18:15:40.840Z,101167.63
2022-08-26T18:18:06.965Z,101164.88
2022-08-26T18:20:32.709Z,101163.22
2022-08-26T18:22:58.633Z,101166.81
2022-08-26T18:25:27.707Z,101166.81
2022-08-26T18:27:53.400Z,101167.03
2022-08-26T18:30:20.556Z,101172.31
2022-08-26T18:32:47.557Z,101167.03
2022-08-26T18:35:13.703Z,101178.03
2022-08-26T18:37:39.740Z,101177.78
2022-08-26T18:40:07.298Z,101182.41
2022-08-26T18:42:33.290Z,101181.59
2022-08-26T18:44:58.926Z,101179.94
2022-08-26T18:47:24.809Z,101176.09
2022-08-26T18:49:53.672Z,101184.34
2022-08-26T18:52:19.543Z,101184.53
2022-08-26T18:54:46.195Z,101186.03
2022-08-26T18:57:12.084Z,101185.44
2022-08-26T18:59:37.847Z,101188.19
2022-08-26T19:02:03.963Z,101191.75
2022-08-26T19:04:32.315Z,101192.56
2022-08-26T19:07:01.089Z,101188.19
2022-08-26T19:09:36.439Z,101193.66
2022-08-26T19:12:03.778Z,101191.13
2022-08-26T19:14:31.316Z,101193.28
2022-08-26T19:16:57.212Z,101193.28
2022-08-26T19:19:24.706Z,101184.81
2022-08-26T19:21:50.894Z,101183.72
2022-08-26T19:24:17.394Z,101185.63
2022-08-26T19:26:45.455Z,101191.34
2022-08-26T19:29:11.915Z,101195.53
2022-08-26T19:31:37.557Z,101194.09
2022-08-26T19:34:04.422Z,101198.75
2022-08-26T19:36:30.778Z,101198.75
2022-08-26T19:38:57.277Z,101200.41
2022-08-26T19:41:34.137Z,101198.75
2022-08-26T19:44:07.393Z,101197.94
2022-08-26T19:46:33.318Z,101196.00
2022-08-26T19:48:59.061Z,101195.78
2022-08-26T19:51:27.094Z,101199.81
2022-08-26T19:53:54.066Z,101200.69
2022-08-26T19:56:20.578Z,101187.78
2022-08-26T19:58:46.637Z,101197.06
2022-08-26T20:01:13.363Z,101200.69
2022-08-26T20:03:39.576Z,101194.31
2022-08-26T20:06:06.807Z,101197.94
2022-08-26T20:08:33.570Z,101199.81
2022-08-26T20:11:00.983Z,101208.91
2022-08-26T20:13:27.373Z,101201.97
2022-08-26T20:15:53.001Z,101192.69
2022-08-26T20:18:38.537Z,101186.09
2022-08-26T20:21:24.105Z,101191.59
2022-08-26T20:23:50.794Z,101196.25
2022-08-26T20:26:16.841Z,101194.31
2022-08-26T20:28:42.654Z,101201.50
2022-08-26T20:31:08.746Z,101202.81
2022-08-26T20:33:46.124Z,101210.78
2022-08-26T20:36:12.678Z,101203.66
2022-08-26T20:38:38.358Z,101204.72
2022-08-26T20:41:04.127Z,101204.72
2022-08-26T20:43:29.822Z,101215.69
2022-08-26T20:45:55.689Z,101215.97
2022-08-26T20:48:21.631Z,101223.09
2022-08-26T20:50:47.434Z,101223.69
2022-08-26T20:53:13.149Z,101225.84
2022-08-26T20:55:38.918Z,101230.28
2022-08-26T20:58:04.621Z,101230.28
2022-08-26T21:00:30.333Z,101233.03
2022-08-26T21:02:56.029Z,101229.69
2022-08-26T21:05:22.013Z,101228.34
2022-08-26T21:07:47.811Z,101231.09
2022-08-26T21:10:14.064Z,101221.44
2022-08-26T21:12:40.012Z,101229.91
2022-08-26T21:15:06.642Z,101229.69
2022-08-26T21:17:32.916Z,101233.25
2022-08-26T21:19:58.608Z,101228.00
2022-08-26T21:22:24.337Z,101233.25
2022-08-26T21:24:50.028Z,101231.34
2022-08-26T21:27:23.055Z,101229.69
2022-08-26T21:29:52.717Z,101220.59
2022-08-26T21:32:18.473Z,101221.44
2022-08-26T21:34:44.207Z,101224.19
2022-08-26T21:37:16.625Z,101217.84
2022-08-26T21:39:42.714Z,101224.41
2022-08-26T21:42:08.344Z,101226.06
2022-08-26T21:44:33.987Z,101220.03
2022-08-26T21:46:59.616Z,101221.69
2022-08-26T21:49:25.338Z,101230.75
2022-08-26T21:51:51.118Z,101230.75
2022-08-26T21:54:17.358Z,101238.16
2022-08-26T21:56:45.696Z,101235.41
2022-08-26T21:59:12.539Z,101240.88
2022-08-26T22:01:38.231Z,101244.72
2022-08-26T22:04:06.124Z,101242.81
2022-08-26T22:06:33.742Z,101238.16
2022-08-26T22:08:59.853Z,101235.88
2022-08-26T22:11:26.893Z,101236.50
2022-08-26T22:13:52.862Z,101233.75
2022-08-26T22:16:19.005Z,101232.88
2022-08-26T22:18:44.841Z,101243.88
2022-08-26T22:21:15.495Z,101241.97
2022-08-26T22:23:41.337Z,101244.94
2022-08-26T22:26:09.436Z,101245.78
2022-08-26T22:28:35.285Z,101246.00
2022-08-26T22:31:01.368Z,101244.34
2022-08-26T22:33:28.155Z,101252.09
2022-08-26T22:35:54.636Z,101246.88
2022-08-26T22:38:22.851Z,101247.69
2022-08-26T22:40:51.095Z,101249.63
2022-08-26T22:43:17.811Z,101257.00
2022-08-26T22:45:47.330Z,101247.09
2022-08-26T22:48:19.096Z,101246.28
2022-08-26T22:50:46.260Z,101249.63
2022-08-26T22:53:12.438Z,101240.19
2022-08-26T22:55:38.230Z,101250.06
2022-08-26T22:58:04.724Z,101250.91
2022-08-26T23:00:32.053Z,101252.81
2022-08-26T23:02:58.889Z,101246.28
2022-08-26T23:05:24.565Z,101257.25
2022-08-26T23:07:50.264Z,101244.59
2022-08-26T23:10:15.973Z,101255.56
2022-08-26T23:12:41.612Z,101252.22
2022-08-26T23:15:09.641Z,101257.72
2022-08-26T23:17:36.172Z,101256.88
2022-08-26T23:20:04.537Z,101261.28
2022-08-26T23:22:30.551Z,101261.28
2022-08-26T23:24:56.961Z,101263.19
2022-08-26T23:27:23.109Z,101262.38
2022-08-26T23:29:48.923Z,101251.41
2022-08-26T23:32:14.651Z,101259.84
2022-08-26T23:34:55.280Z,101256.66
2022-08-26T23:37:22.784Z,101256.88
2022-08-26T23:39:50.863Z,101257.72
2022-08-26T23:42:16.523Z,101259.03
2022-08-26T23:44:42.765Z,101249.72
2022-08-26T23:47:08.586Z,101250.56
2022-08-26T23:49:35.062Z,101257.13
2022-08-26T23:52:21.902Z,101250.56
2022-08-26T23:54:49.060Z,101251.63
2022-08-26T23:57:16.393Z,101249.97
2022-08-26T23:59:42.377Z,101246.72
